createdAt,value
2017-01-14T00:00:37.503Z,92.61
2017-01-14T00:01:43.719Z,93.27
2017-01-14T00:02:49.880Z,92.61
2017-01-14T00:03:54.108Z,92.9
2017-01-14T00:04:57.342Z,92.9
2017-01-14T00:06:01.570Z,92.9
2017-01-14T00:07:06.771Z,92.71
2017-01-14T00:08:11.973Z,93.08
2017-01-14T00:09:16.203Z,92.61
2017-01-14T00:10:21.401Z,92.71
2017-01-14T00:11:25.637Z,92.14
2017-01-14T00:12:29.899Z,92.23
2017-01-14T00:13:36.069Z,92.52
2017-01-14T00:14:41.313Z,92.04
2017-01-14T00:15:47.447Z,91.85
2017-01-14T00:16:51.665Z,92.23
2017-01-14T00:17:57.906Z,92.42
2017-01-14T00:19:03.081Z,92.14
2017-01-14T00:20:08.283Z,91.66
2017-01-14T00:21:13.496Z,91.19
2017-01-14T00:22:18.736Z,91.47
2017-01-14T00:23:23.865Z,91.57
2017-01-14T00:24:30.040Z,91.85
2017-01-14T00:25:36.242Z,91.66
2017-01-14T00:26:42.466Z,91.19
2017-01-14T00:27:47.680Z,91.38
2017-01-14T00:28:52.945Z,91.38
2017-01-14T00:29:57.098Z,91.47
2017-01-14T00:31:03.262Z,91.28
2017-01-14T00:32:08.459Z,91.66
2017-01-14T00:33:13.628Z,91.38
2017-01-14T00:34:19.825Z,91.38
2017-01-14T00:35:24.049Z,91.19
2017-01-14T00:36:29.273Z,90.53
2017-01-14T00:37:34.417Z,90.81
2017-01-14T00:38:39.584Z,90.62
2017-01-14T00:39:44.782Z,90.81
2017-01-14T00:40:51.002Z,91.38
2017-01-14T00:41:55.187Z,91.47
2017-01-14T00:43:01.328Z,91.28
2017-01-14T00:44:05.568Z,91.47
2017-01-14T00:45:10.787Z,91.09
2017-01-14T00:46:16.981Z,90.91
2017-01-14T00:47:22.176Z,90.15
2017-01-14T00:48:26.373Z,90.15
2017-01-14T00:49:31.574Z,90.53
2017-01-14T00:50:37.734Z,90.34
2017-01-14T00:51:42.731Z,90.91
2017-01-14T00:52:47.830Z,91.09
2017-01-14T00:53:54.007Z,91.47
2017-01-14T00:54:59.208Z,91.38
2017-01-14T00:56:04.409Z,91.19
2017-01-14T00:57:10.569Z,91.57
2017-01-14T00:58:15.760Z,91.57
2017-01-14T00:59:21.928Z,91.38
2017-01-14T01:00:26.156Z,91.38
2017-01-14T01:01:30.393Z,91.81
2017-01-14T01:02:36.571Z,91.19
2017-01-14T01:03:41.826Z,91.76
2017-01-14T01:04:47.941Z,92.04
2017-01-14T01:05:53.149Z,92
2017-01-14T01:06:59.312Z,91.95
2017-01-14T01:08:04.586Z,92.85
2017-01-14T01:09:10.746Z,92.85
2017-01-14T01:10:15.942Z,92.19
2017-01-14T01:11:21.112Z,92.57
2017-01-14T01:12:26.313Z,92.66
2017-01-14T01:13:30.540Z,92.47
2017-01-14T01:14:35.744Z,92.19
2017-01-14T01:15:40.934Z,91.81
2017-01-14T01:16:45.121Z,92.33
2017-01-14T01:17:51.292Z,92.19
2017-01-14T01:18:57.456Z,92.38
2017-01-14T01:20:02.648Z,92.28
2017-01-14T01:21:07.845Z,92
2017-01-14T01:22:14.003Z,92.23
2017-01-14T01:23:18.244Z,92.42
2017-01-14T01:24:23.479Z,91.52
2017-01-14T01:25:29.641Z,91.43
2017-01-14T01:26:35.815Z,92.33
2017-01-14T01:27:40.032Z,91.52
2017-01-14T01:28:46.197Z,91.62
2017-01-14T01:29:51.389Z,92.19
2017-01-14T01:30:57.553Z,92
2017-01-14T01:32:03.715Z,91.33
2017-01-14T01:33:09.880Z,90.86
2017-01-14T01:34:14.082Z,90.86
2017-01-14T01:35:20.244Z,90.58
2017-01-14T01:36:25.471Z,91.33
2017-01-14T01:37:31.643Z,91.33
2017-01-14T01:38:36.956Z,91.62
2017-01-14T01:39:43.160Z,91.52
2017-01-14T01:40:45.838Z,91.24
2017-01-14T01:41:52.006Z,91.43
2017-01-14T01:42:57.174Z,91.71
2017-01-14T01:44:01.524Z,91.33
2017-01-14T01:45:05.853Z,91.81
2017-01-14T01:46:10.083Z,92.28
2017-01-14T01:47:15.284Z,92.28
2017-01-14T01:48:21.449Z,92
2017-01-14T01:49:27.611Z,92.19
2017-01-14T01:50:31.842Z,91.9
2017-01-14T01:51:38.065Z,91.62
2017-01-14T01:52:42.295Z,91.52
2017-01-14T01:53:47.457Z,91.62
2017-01-14T01:54:53.630Z,91.24
2017-01-14T01:55:59.828Z,91.33
2017-01-14T01:57:04.972Z,90.58
2017-01-14T01:58:10.194Z,91.33
2017-01-14T01:59:16.357Z,91.62
2017-01-14T02:00:21.558Z,91.24
2017-01-14T02:01:26.791Z,91.81
2017-01-14T02:02:32.965Z,91.71
2017-01-14T02:03:38.265Z,91.62
2017-01-14T02:04:43.485Z,91.52
2017-01-14T02:05:48.712Z,91.81
2017-01-14T02:06:52.922Z,91.52
2017-01-14T02:07:57.165Z,92.19
2017-01-14T02:09:02.359Z,91.81
2017-01-14T02:10:07.579Z,92.19
2017-01-14T02:11:12.773Z,92.09
2017-01-14T02:12:17.974Z,92.19
2017-01-14T02:13:23.168Z,92.85
2017-01-14T02:14:27.432Z,93.04
2017-01-14T02:15:33.563Z,92.28
2017-01-14T02:16:39.729Z,92.85
2017-01-14T02:17:44.963Z,92.85
2017-01-14T02:18:49.165Z,93.42
2017-01-14T02:19:54.348Z,93.23
2017-01-14T02:20:59.680Z,93.13
2017-01-14T02:22:04.868Z,93.23
2017-01-14T02:23:09.081Z,93.23
2017-01-14T02:24:13.340Z,93.13
2017-01-14T02:25:18.478Z,93.23
2017-01-14T02:26:23.688Z,93.23
2017-01-14T02:27:29.856Z,93.04
2017-01-14T02:28:36.031Z,93.42
2017-01-14T02:29:42.298Z,93.04
2017-01-14T02:30:47.454Z,93.32
2017-01-14T02:31:53.379Z,93.13
2017-01-14T02:32:58.582Z,93.13
2017-01-14T02:34:02.819Z,93.13
2017-01-14T02:35:05.087Z,93.13
2017-01-14T02:36:11.309Z,93.23
2017-01-14T02:37:15.509Z,93.32
2017-01-14T02:38:21.667Z,93.51
2017-01-14T02:39:26.873Z,93.42
2017-01-14T02:40:32.076Z,93.42
2017-01-14T02:41:37.281Z,93.32
2017-01-14T02:42:43.463Z,93.99
2017-01-14T02:43:49.630Z,93.7
2017-01-14T02:44:54.819Z,93.89
2017-01-14T02:45:59.052Z,93.99
2017-01-14T02:47:04.249Z,93.89
2017-01-14T02:48:09.446Z,93.51
2017-01-14T02:49:15.718Z,94.37
2017-01-14T02:50:22.024Z,94.37
2017-01-14T02:51:27.726Z,93.99
2017-01-14T02:52:34.007Z,94.27
2017-01-14T02:53:40.411Z,94.37
2017-01-14T02:54:45.582Z,94.18
2017-01-14T02:55:51.778Z,94.18
2017-01-14T02:56:57.950Z,94.27
2017-01-14T02:58:02.186Z,94.65
2017-01-14T02:59:06.399Z,94.08
2017-01-14T03:00:12.597Z,94.56
2017-01-14T03:01:18.934Z,94.27
2017-01-14T03:02:25.086Z,94.37
2017-01-14T03:03:30.289Z,94.27
2017-01-14T03:04:33.525Z,94.27
2017-01-14T03:05:37.758Z,94.37
2017-01-14T03:06:43.931Z,94.56
2017-01-14T03:07:50.157Z,94.46
2017-01-14T03:08:54.025Z,94.27
2017-01-14T03:09:59.234Z,93.89
2017-01-14T03:11:04.398Z,93.99
2017-01-14T03:12:10.596Z,94.08
2017-01-14T03:13:15.803Z,93.7
2017-01-14T03:14:22.043Z,93.89
2017-01-14T03:15:28.209Z,93.7
2017-01-14T03:16:33.409Z,93.13
2017-01-14T03:17:37.607Z,93.32
2017-01-14T03:18:41.831Z,93.7
2017-01-14T03:19:47.991Z,93.99
2017-01-14T03:20:54.156Z,93.89
2017-01-14T03:21:58.356Z,94.18
2017-01-14T03:23:03.534Z,93.7
2017-01-14T03:24:08.731Z,94.13
2017-01-14T03:25:13.940Z,93.8
2017-01-14T03:26:18.143Z,93.84
2017-01-14T03:27:23.334Z,94.13
2017-01-14T03:28:28.527Z,94.04
2017-01-14T03:29:34.681Z,93.94
2017-01-14T03:30:38.914Z,93.94
2017-01-14T03:31:43.154Z,93.84
2017-01-14T03:32:49.277Z,93.75
2017-01-14T03:33:55.473Z,93.75
2017-01-14T03:35:00.646Z,93.56
2017-01-14T03:36:05.811Z,93.37
2017-01-14T03:37:11.012Z,93.27
2017-01-14T03:38:15.283Z,93.37
2017-01-14T03:39:19.443Z,93.94
2017-01-14T03:40:23.642Z,93.75
2017-01-14T03:41:28.817Z,93.37
2017-01-14T03:42:34.037Z,93.27
2017-01-14T03:43:40.196Z,93.27
2017-01-14T03:44:46.358Z,93.18
2017-01-14T03:45:51.552Z,93.56
2017-01-14T03:46:55.793Z,93.46
2017-01-14T03:48:01.955Z,93.84
2017-01-14T03:49:07.243Z,93.37
2017-01-14T03:50:12.412Z,93.37
2017-01-14T03:51:18.581Z,93.27
2017-01-14T03:52:24.742Z,93.18
2017-01-14T03:53:30.052Z,93.18
2017-01-14T03:54:36.271Z,92.99
2017-01-14T03:55:41.462Z,92.52
2017-01-14T03:56:46.689Z,92.14
2017-01-14T03:57:51.947Z,91.57
2017-01-14T03:58:57.196Z,92.14
2017-01-14T04:00:02.361Z,92.05
2017-01-14T04:01:07.564Z,91.48
2017-01-14T04:02:13.724Z,91.57
2017-01-14T04:03:19.919Z,91.57
2017-01-14T04:04:26.099Z,91.1
2017-01-14T04:05:31.418Z,90.72
2017-01-14T04:06:37.567Z,91
2017-01-14T04:07:41.764Z,90.39
2017-01-14T04:08:45.961Z,89.68
2017-01-14T04:09:52.133Z,89.15
2017-01-14T04:10:58.294Z,89.77
2017-01-14T04:12:04.458Z,90.34
2017-01-14T04:13:09.658Z,90.15
2017-01-14T04:14:15.929Z,89.58
2017-01-14T04:15:22.101Z,89.3
2017-01-14T04:16:27.265Z,89.68
2017-01-14T04:17:32.458Z,89.3
2017-01-14T04:18:36.691Z,89.11
2017-01-14T04:19:39.956Z,89.58
2017-01-14T04:20:45.150Z,89.3
2017-01-14T04:21:51.315Z,89.3
2017-01-14T04:22:56.514Z,89.01
2017-01-14T04:24:01.680Z,89.01
2017-01-14T04:25:06.912Z,89.2
2017-01-14T04:26:12.118Z,89.49
2017-01-14T04:27:17.316Z,89.49
2017-01-14T04:28:22.483Z,89.58
2017-01-14T04:29:27.727Z,88.92
2017-01-14T04:30:33.914Z,89.3
2017-01-14T04:31:37.290Z,88.92
2017-01-14T04:32:42.460Z,88.92
2017-01-14T04:33:47.651Z,88.64
2017-01-14T04:34:53.873Z,88.54
2017-01-14T04:36:00.040Z,88.17
2017-01-14T04:37:03.448Z,87.98
2017-01-14T04:38:08.759Z,88.17
2017-01-14T04:39:13.959Z,88.17
2017-01-14T04:40:19.162Z,87.98
2017-01-14T04:41:23.392Z,88.26
2017-01-14T04:42:27.602Z,88.73
2017-01-14T04:43:32.799Z,88.35
2017-01-14T04:44:36.177Z,87.98
2017-01-14T04:45:42.394Z,88.26
2017-01-14T04:46:47.588Z,88.64
2017-01-14T04:47:53.460Z,89.49
2017-01-14T04:48:59.658Z,89.01
2017-01-14T04:50:05.788Z,88.92
2017-01-14T04:51:11.988Z,88.82
2017-01-14T04:52:17.233Z,88.92
2017-01-14T04:53:22.427Z,89.01
2017-01-14T04:54:28.594Z,89.01
2017-01-14T04:55:34.759Z,89.2
2017-01-14T04:56:39.958Z,89.01
2017-01-14T04:57:45.152Z,89.2
2017-01-14T04:58:50.352Z,88.54
2017-01-14T04:59:55.525Z,88.45
2017-01-14T05:01:00.756Z,88.07
2017-01-14T05:02:05.898Z,87.98
2017-01-14T05:03:11.092Z,87.88
2017-01-14T05:04:17.267Z,87.59
2017-01-14T05:05:23.426Z,87.69
2017-01-14T05:06:29.585Z,86.93
2017-01-14T05:07:35.758Z,86.83
2017-01-14T05:08:41.012Z,86.93
2017-01-14T05:09:46.208Z,86.65
2017-01-14T05:10:51.445Z,87.12
2017-01-14T05:11:56.613Z,86.89
2017-01-14T05:13:02.776Z,86.51
2017-01-14T05:14:08.945Z,86.22
2017-01-14T05:15:14.222Z,87.08
2017-01-14T05:16:20.402Z,86.32
2017-01-14T05:17:23.663Z,86.7
2017-01-14T05:18:28.845Z,86.32
2017-01-14T05:19:34.074Z,86.13
2017-01-14T05:20:40.212Z,86.55
2017-01-14T05:21:46.381Z,85.61
2017-01-14T05:22:51.605Z,85.89
2017-01-14T05:23:55.906Z,85.61
2017-01-14T05:25:01.098Z,85.99
2017-01-14T05:26:05.291Z,86.36
2017-01-14T05:27:10.527Z,86.36
2017-01-14T05:28:14.702Z,86.41
2017-01-14T05:29:20.868Z,86.22
2017-01-14T05:30:25.141Z,86.22
2017-01-14T05:31:31.273Z,86.04
2017-01-14T05:32:36.470Z,86.04
2017-01-14T05:33:42.628Z,86.04
2017-01-14T05:34:46.839Z,86.04
2017-01-14T05:35:53.012Z,85.75
2017-01-14T05:36:58.206Z,86.32
2017-01-14T05:38:03.397Z,86.32
2017-01-14T05:39:09.565Z,86.22
2017-01-14T05:40:15.724Z,86.7
2017-01-14T05:41:20.924Z,86.04
2017-01-14T05:42:27.217Z,86.04
2017-01-14T05:43:32.421Z,86.51
2017-01-14T05:44:36.649Z,86.13
2017-01-14T05:45:42.815Z,86.32
2017-01-14T05:46:49.005Z,86.04
2017-01-14T05:47:54.187Z,86.32
2017-01-14T05:48:59.358Z,87.08
2017-01-14T05:50:05.623Z,87.08
2017-01-14T05:51:10.720Z,87.08
2017-01-14T05:52:16.895Z,86.22
2017-01-14T05:53:22.107Z,86.89
2017-01-14T05:54:28.329Z,86.79
2017-01-14T05:55:33.502Z,86.89
2017-01-14T05:56:38.701Z,86.7
2017-01-14T05:57:44.862Z,86.7
2017-01-14T05:58:50.062Z,86.32
2017-01-14T05:59:55.248Z,86.79
2017-01-14T06:01:01.422Z,86.22
2017-01-14T06:02:07.602Z,85.85
2017-01-14T06:03:12.801Z,85.47
2017-01-14T06:04:17.972Z,85.75
2017-01-14T06:05:24.179Z,84.9
2017-01-14T06:06:29.447Z,85.38
2017-01-14T06:07:35.611Z,85.57
2017-01-14T06:08:41.830Z,84.81
2017-01-14T06:09:47.955Z,84.33
2017-01-14T06:10:54.113Z,84.52
2017-01-14T06:11:59.405Z,84.61
2017-01-14T06:13:04.593Z,84.14
2017-01-14T06:14:08.823Z,83.48
2017-01-14T06:15:13.056Z,83.39
2017-01-14T06:16:19.360Z,83.29
2017-01-14T06:17:25.518Z,83.2
2017-01-14T06:18:31.713Z,82.72
2017-01-14T06:19:37.887Z,83.2
2017-01-14T06:20:44.056Z,82.44
2017-01-14T06:21:50.233Z,83.01
2017-01-14T06:22:55.444Z,82.63
2017-01-14T06:24:01.603Z,82.15
2017-01-14T06:25:07.767Z,82.44
2017-01-14T06:26:13.049Z,83.2
2017-01-14T06:27:19.211Z,82.82
2017-01-14T06:28:22.504Z,82.63
2017-01-14T06:29:26.729Z,82.82
2017-01-14T06:30:31.903Z,82.25
2017-01-14T06:31:37.102Z,83.2
2017-01-14T06:32:41.327Z,82.72
2017-01-14T06:33:47.489Z,82.44
2017-01-14T06:34:53.650Z,82.44
2017-01-14T06:35:57.875Z,82.82
2017-01-14T06:37:02.071Z,82.63
2017-01-14T06:38:07.277Z,82.53
2017-01-14T06:39:12.475Z,82.63
2017-01-14T06:40:17.676Z,83.1
2017-01-14T06:41:21.886Z,83.01
2017-01-14T06:42:27.129Z,82.82
2017-01-14T06:43:31.290Z,83.1
2017-01-14T06:44:36.486Z,83.1
2017-01-14T06:45:41.684Z,83.2
2017-01-14T06:46:47.844Z,82.91
2017-01-14T06:47:54.037Z,83.01
2017-01-14T06:49:00.195Z,83.2
2017-01-14T06:50:04.425Z,83.01
2017-01-14T06:51:09.633Z,82.91
2017-01-14T06:52:15.797Z,83.1
2017-01-14T06:53:21.970Z,82.91
2017-01-14T06:54:28.141Z,82.82
2017-01-14T06:55:33.352Z,83.48
2017-01-14T06:56:38.551Z,83.1
2017-01-14T06:57:43.817Z,83.2
2017-01-14T06:58:49.019Z,83.29
2017-01-14T06:59:54.230Z,83.2
2017-01-14T07:00:59.398Z,82.82
2017-01-14T07:02:05.206Z,83.06
2017-01-14T07:03:11.425Z,82.44
2017-01-14T07:04:17.587Z,83.01
2017-01-14T07:05:22.768Z,83.06
2017-01-14T07:06:28.004Z,82.78
2017-01-14T07:07:34.140Z,83.53
2017-01-14T07:08:39.342Z,83.82
2017-01-14T07:09:42.576Z,83.53
2017-01-14T07:10:47.768Z,82.97
2017-01-14T07:11:53.946Z,83.15
2017-01-14T07:13:00.114Z,83.53
2017-01-14T07:14:06.275Z,83.44
2017-01-14T07:15:10.465Z,83.91
2017-01-14T07:16:13.756Z,83.82
2017-01-14T07:17:18.967Z,84.1
2017-01-14T07:18:24.159Z,84.2
2017-01-14T07:19:30.326Z,84.1
2017-01-14T07:20:36.514Z,83.91
2017-01-14T07:21:41.720Z,83.63
2017-01-14T07:22:46.917Z,83.72
2017-01-14T07:23:52.087Z,83.34
2017-01-14T07:24:58.253Z,83.63
2017-01-14T07:26:03.453Z,83.63
2017-01-14T07:27:08.636Z,83.91
2017-01-14T07:28:12.839Z,83.44
2017-01-14T07:29:19.003Z,83.44
2017-01-14T07:30:24.199Z,83.34
2017-01-14T07:31:30.362Z,83.06
2017-01-14T07:32:35.556Z,83.15
2017-01-14T07:33:41.722Z,83.25
2017-01-14T07:34:47.911Z,82.87
2017-01-14T07:35:54.086Z,82.97
2017-01-14T07:37:00.253Z,83.44
2017-01-14T07:38:05.454Z,83.06
2017-01-14T07:39:11.650Z,82.78
2017-01-14T07:40:16.820Z,83.34
2017-01-14T07:41:22.989Z,82.97
2017-01-14T07:42:28.223Z,82.78
2017-01-14T07:43:34.397Z,83.15
2017-01-14T07:44:40.578Z,82.31
2017-01-14T07:45:45.750Z,83.15
2017-01-14T07:46:51.915Z,82.91
2017-01-14T07:47:58.074Z,83.2
2017-01-14T07:49:03.312Z,83.1
2017-01-14T07:50:08.500Z,82.44
2017-01-14T07:51:14.675Z,82.44
2017-01-14T07:52:19.881Z,82.06
2017-01-14T07:53:25.133Z,82.06
2017-01-14T07:54:29.429Z,82.72
2017-01-14T07:55:33.696Z,82.72
2017-01-14T07:56:38.896Z,82.34
2017-01-14T07:57:45.074Z,81.96
2017-01-14T07:58:48.319Z,82.34
2017-01-14T07:59:53.512Z,82.06
2017-01-14T08:00:58.706Z,80.83
2017-01-14T08:02:03.912Z,81.49
2017-01-14T08:03:09.097Z,81.3
2017-01-14T08:04:13.291Z,81.12
2017-01-14T08:05:18.488Z,81.3
2017-01-14T08:06:23.682Z,82.25
2017-01-14T08:07:29.846Z,81.87
2017-01-14T08:08:35.085Z,81.87
2017-01-14T08:09:39.277Z,82.15
2017-01-14T08:10:45.442Z,82.53
2017-01-14T08:11:51.612Z,82.15
2017-01-14T08:12:55.841Z,81.96
2017-01-14T08:14:01.061Z,82.2
2017-01-14T08:15:07.282Z,82.01
2017-01-14T08:16:12.448Z,81.63
2017-01-14T08:17:15.718Z,81.53
2017-01-14T08:18:21.899Z,80.49
2017-01-14T08:19:27.097Z,79.96
2017-01-14T08:20:31.327Z,79.96
2017-01-14T08:21:37.528Z,78.92
2017-01-14T08:22:43.693Z,78.49
2017-01-14T08:23:49.872Z,77.35
2017-01-14T08:24:55.122Z,76.5
2017-01-14T08:26:01.289Z,75.49
2017-01-14T08:27:06.494Z,74.92
2017-01-14T08:28:12.660Z,74.45
2017-01-14T08:29:18.832Z,73.03
2017-01-14T08:30:24.035Z,72.11
2017-01-14T08:31:30.215Z,71.73
2017-01-14T08:32:34.418Z,72.02
2017-01-14T08:33:38.627Z,70.78
2017-01-14T08:34:42.879Z,70.06
2017-01-14T08:35:48.081Z,69.96
2017-01-14T08:36:53.286Z,70.15
2017-01-14T08:37:59.448Z,68.83
2017-01-14T08:39:03.679Z,67.82
2017-01-14T08:40:09.850Z,67.44
2017-01-14T08:41:15.063Z,67.06
2017-01-14T08:42:18.309Z,66.27
2017-01-14T08:43:23.484Z,66.74
2017-01-14T08:44:29.653Z,67.02
2017-01-14T08:45:35.817Z,67.12
2017-01-14T08:46:42.051Z,68.26
2017-01-14T08:47:46.292Z,68.16
2017-01-14T08:48:52.462Z,68.6
2017-01-14T08:49:57.667Z,69.65
2017-01-14T08:51:03.837Z,69.93
2017-01-14T08:52:09.067Z,69.93
2017-01-14T08:53:15.252Z,70.54
2017-01-14T08:54:20.464Z,69.4
2017-01-14T08:55:25.666Z,69.4
2017-01-14T08:56:30.837Z,68.83
2017-01-14T08:57:35.057Z,69.49
2017-01-14T08:58:40.340Z,68.83
2017-01-14T08:59:45.540Z,68.29
2017-01-14T09:00:49.007Z,66.39
2017-01-14T09:01:54.180Z,65.76
2017-01-14T09:02:58.413Z,64.81
2017-01-14T09:04:04.637Z,63.42
2017-01-14T09:05:09.870Z,62.18
2017-01-14T09:06:16.043Z,61.52
2017-01-14T09:07:21.250Z,60.28
2017-01-14T09:08:26.456Z,61.83
2017-01-14T09:09:32.621Z,60.09
2017-01-14T09:10:37.829Z,61.42
2017-01-14T09:11:43.041Z,61.04
2017-01-14T09:12:46.286Z,60.94
2017-01-14T09:13:52.473Z,60.47
2017-01-14T09:14:57.722Z,60.02
2017-01-14T09:16:04.006Z,60.12
2017-01-14T09:17:10.197Z,59.93
2017-01-14T09:18:16.371Z,59.27
2017-01-14T09:19:22.552Z,58.15
2017-01-14T09:20:28.731Z,57.77
2017-01-14T09:21:32.964Z,58.4
2017-01-14T09:22:36.229Z,59.42
2017-01-14T09:23:41.429Z,61.04
2017-01-14T09:24:46.608Z,61.96
2017-01-14T09:25:52.793Z,62.91
2017-01-14T09:26:58.965Z,63.35
2017-01-14T09:28:03.272Z,63.83
2017-01-14T09:29:09.443Z,65.82
2017-01-14T09:30:14.641Z,67.12
2017-01-14T09:31:18.879Z,68.16
2017-01-14T09:32:24.089Z,69.21
2017-01-14T09:33:29.311Z,69.46
2017-01-14T09:34:35.542Z,70.12
2017-01-14T09:35:41.719Z,71.07
2017-01-14T09:36:45.929Z,71.17
2017-01-14T09:37:51.102Z,71.64
2017-01-14T09:38:55.307Z,72.11
2017-01-14T09:40:00.513Z,72.3
2017-01-14T09:41:06.743Z,72.78
2017-01-14T09:42:11.921Z,73.6
2017-01-14T09:43:18.108Z,73.22
2017-01-14T09:44:22.339Z,73.97
2017-01-14T09:45:26.582Z,73.88
2017-01-14T09:46:31.260Z,73.88
2017-01-14T09:47:35.411Z,73.5
2017-01-14T09:48:41.577Z,73.97
2017-01-14T09:49:46.754Z,75.4
2017-01-14T09:50:52.946Z,76.06
2017-01-14T09:51:59.126Z,75.96
2017-01-14T09:53:04.318Z,75.96
2017-01-14T09:54:09.521Z,76.44
2017-01-14T09:55:13.763Z,77.86
2017-01-14T09:56:19.944Z,78.34
2017-01-14T09:57:24.146Z,78.34
2017-01-14T09:58:29.428Z,78.43
2017-01-14T09:59:35.167Z,78.77
2017-01-14T10:00:41.394Z,79.25
2017-01-14T10:01:47.627Z,79.06
2017-01-14T10:02:53.828Z,79.82
2017-01-14T10:04:00.004Z,80.38
2017-01-14T10:05:05.200Z,80.57
2017-01-14T10:06:10.404Z,80.76
2017-01-14T10:07:13.655Z,81.05
2017-01-14T10:08:19.827Z,80.67
2017-01-14T10:09:26.046Z,79.82
2017-01-14T10:10:32.326Z,79.72
2017-01-14T10:11:37.639Z,80.29
2017-01-14T10:12:43.801Z,79.82
2017-01-14T10:13:49.007Z,79.82
2017-01-14T10:14:53.234Z,79.63
2017-01-14T10:15:56.482Z,79.82
2017-01-14T10:17:02.651Z,80.76
2017-01-14T10:18:08.816Z,80.86
2017-01-14T10:19:14.985Z,80
2017-01-14T10:20:20.181Z,80.1
2017-01-14T10:21:26.358Z,80.1
2017-01-14T10:22:31.582Z,79.38
2017-01-14T10:23:33.876Z,79.1
2017-01-14T10:24:40.047Z,77.58
2017-01-14T10:25:45.256Z,75.91
2017-01-14T10:26:51.627Z,75.15
2017-01-14T10:27:56.823Z,73.25
2017-01-14T10:29:01.081Z,73.1
2017-01-14T10:30:07.266Z,72.25
2017-01-14T10:31:13.428Z,72.25
2017-01-14T10:32:17.656Z,71.3
2017-01-14T10:33:23.828Z,70.92
2017-01-14T10:34:30.001Z,69.71
2017-01-14T10:35:35.225Z,69.43
2017-01-14T10:36:41.399Z,67.57
2017-01-14T10:37:46.596Z,67.47
2017-01-14T10:38:52.777Z,67.06
2017-01-14T10:39:57.982Z,66.58
2017-01-14T10:41:02.219Z,66.33
2017-01-14T10:42:08.393Z,66.24
2017-01-14T10:43:13.568Z,66.05
2017-01-14T10:44:19.755Z,65.76
2017-01-14T10:45:23.974Z,64.9
2017-01-14T10:46:30.151Z,64.9
2017-01-14T10:47:36.329Z,64.81
2017-01-14T10:48:41.496Z,66.05
2017-01-14T10:49:47.676Z,66.05
2017-01-14T10:50:52.887Z,67.19
2017-01-14T10:51:58.086Z,66.9
2017-01-14T10:53:02.334Z,66.24
2017-01-14T10:54:07.534Z,65.76
2017-01-14T10:55:11.744Z,65
2017-01-14T10:56:17.911Z,64.34
2017-01-14T10:57:23.176Z,64.43
2017-01-14T10:58:29.303Z,64.53
2017-01-14T10:59:34.509Z,64.81
2017-01-14T11:00:40.680Z,64.72
2017-01-14T11:01:45.006Z,64.81
2017-01-14T11:02:51.305Z,65.28
2017-01-14T11:03:55.545Z,65.57
2017-01-14T11:05:01.825Z,65.19
2017-01-14T11:06:06.063Z,65.82
2017-01-14T11:07:11.245Z,66.11
2017-01-14T11:08:16.455Z,67.15
2017-01-14T11:09:22.629Z,67.15
2017-01-14T11:10:28.818Z,67.31
2017-01-14T11:11:34.998Z,68.73
2017-01-14T11:12:40.246Z,70.12
2017-01-14T11:13:45.467Z,70.88
2017-01-14T11:14:49.757Z,71.17
2017-01-14T11:15:55.887Z,71.73
2017-01-14T11:17:02.108Z,72.11
2017-01-14T11:18:07.255Z,71.92
2017-01-14T11:19:12.533Z,72.4
2017-01-14T11:20:18.695Z,72.88
2017-01-14T11:21:24.867Z,72.59
2017-01-14T11:22:29.067Z,72.4
2017-01-14T11:23:33.289Z,72.4
2017-01-14T11:24:38.496Z,73.07
2017-01-14T11:25:44.669Z,73.03
2017-01-14T11:26:48.880Z,73.22
2017-01-14T11:27:55.083Z,73.03
2017-01-14T11:29:00.255Z,73.12
2017-01-14T11:30:05.475Z,72.64
2017-01-14T11:31:11.850Z,73.41
2017-01-14T11:32:16.108Z,72.93
2017-01-14T11:33:20.340Z,73.97
2017-01-14T11:34:25.699Z,74.07
2017-01-14T11:35:31.841Z,73.6
2017-01-14T11:36:38.006Z,74.07
2017-01-14T11:37:44.326Z,74.26
2017-01-14T11:38:49.489Z,73.69
2017-01-14T11:39:54.691Z,73.41
2017-01-14T11:41:00.860Z,74.07
2017-01-14T11:42:05.822Z,73.97
2017-01-14T11:43:10.038Z,73.69
2017-01-14T11:44:15.234Z,73.31
2017-01-14T11:45:20.475Z,73.79
2017-01-14T11:46:26.649Z,74.73
2017-01-14T11:47:31.832Z,75.87
2017-01-14T11:48:36.029Z,77.29
2017-01-14T11:49:41.240Z,77.96
2017-01-14T11:50:47.497Z,78.91
2017-01-14T11:51:51.818Z,79.06
2017-01-14T11:52:57.008Z,79.82
2017-01-14T11:54:00.274Z,79.63
2017-01-14T11:55:06.463Z,80.57
2017-01-14T11:56:11.661Z,80.29
2017-01-14T11:57:17.824Z,80.38
2017-01-14T11:58:23.029Z,79.85
2017-01-14T11:59:29.203Z,79.38
2017-01-14T12:00:35.371Z,78.62
2017-01-14T12:01:39.603Z,78.91
2017-01-14T12:02:45.771Z,78.77
2017-01-14T12:03:51.948Z,78.77
2017-01-14T12:04:57.153Z,79.25
2017-01-14T12:06:02.325Z,79.06
2017-01-14T12:07:08.486Z,78.91
2017-01-14T12:08:13.683Z,79.1
2017-01-14T12:09:19.851Z,78.58
2017-01-14T12:10:25.060Z,79.19
2017-01-14T12:11:28.328Z,79
2017-01-14T12:12:33.594Z,79.19
2017-01-14T12:13:39.967Z,78.62
2017-01-14T12:14:45.548Z,78.24
2017-01-14T12:15:51.722Z,79.1
2017-01-14T12:16:57.914Z,78.62
2017-01-14T12:18:03.107Z,78.15
2017-01-14T12:19:09.305Z,78.43
2017-01-14T12:20:14.558Z,78.15
2017-01-14T12:21:18.720Z,78.81
2017-01-14T12:22:23.920Z,78.34
2017-01-14T12:23:29.135Z,79.1
2017-01-14T12:24:35.301Z,79.19
2017-01-14T12:25:40.507Z,78.91
2017-01-14T12:26:45.688Z,79
2017-01-14T12:27:50.900Z,79.28
2017-01-14T12:28:56.100Z,78.72
2017-01-14T12:30:01.411Z,78.81
2017-01-14T12:31:04.677Z,78.24
2017-01-14T12:32:10.845Z,78.43
2017-01-14T12:33:14.123Z,78.43
2017-01-14T12:34:20.295Z,77.01
2017-01-14T12:35:26.475Z,76.73
2017-01-14T12:36:32.632Z,76.54
2017-01-14T12:37:37.904Z,77.01
2017-01-14T12:38:42.136Z,80.04
2017-01-14T12:39:47.347Z,79
2017-01-14T12:40:52.551Z,75.96
2017-01-14T12:41:58.730Z,74.92
2017-01-14T12:43:04.937Z,74.64
2017-01-14T12:44:10.137Z,74.73
2017-01-14T12:45:16.303Z,75.02
2017-01-14T12:46:22.475Z,75.68
2017-01-14T12:47:27.673Z,75.4
2017-01-14T12:48:33.858Z,75.4
2017-01-14T12:49:40.061Z,75.87
2017-01-14T12:50:45.353Z,75.31
2017-01-14T12:51:50.491Z,75.78
2017-01-14T12:52:56.718Z,75.4
2017-01-14T12:54:00.955Z,75.4
2017-01-14T12:55:07.141Z,75.11
2017-01-14T12:56:13.401Z,75.21
2017-01-14T12:57:18.607Z,75.21
2017-01-14T12:58:22.920Z,75.21
2017-01-14T12:59:28.116Z,75.59
2017-01-14T13:00:33.299Z,75.87
2017-01-14T13:01:39.479Z,75.4
2017-01-14T13:02:43.711Z,75.59
2017-01-14T13:03:47.921Z,75.96
2017-01-14T13:04:54.125Z,75.87
2017-01-14T13:06:00.297Z,75.78
2017-01-14T13:07:06.473Z,75.59
2017-01-14T13:08:11.675Z,75.96
2017-01-14T13:09:17.849Z,75.87
2017-01-14T13:10:23.152Z,76.63
2017-01-14T13:11:28.335Z,76.73
2017-01-14T13:12:33.624Z,77.39
2017-01-14T13:13:38.826Z,77.64
2017-01-14T13:14:44.020Z,77.35
2017-01-14T13:15:50.192Z,77.92
2017-01-14T13:16:55.409Z,78.2
2017-01-14T13:18:01.585Z,79.25
2017-01-14T13:19:05.857Z,79.44
2017-01-14T13:20:11.997Z,79.63
2017-01-14T13:21:18.155Z,79.82
2017-01-14T13:22:23.379Z,79.72
2017-01-14T13:23:29.520Z,80.29
2017-01-14T13:24:34.722Z,80.38
2017-01-14T13:25:38.991Z,80.38
2017-01-14T13:26:44.151Z,80.67
2017-01-14T13:27:49.356Z,79.82
2017-01-14T13:28:54.556Z,79.82
2017-01-14T13:29:58.797Z,80.38
2017-01-14T13:31:02.996Z,80.76
2017-01-14T13:32:09.290Z,81.05
2017-01-14T13:33:15.425Z,81.33
2017-01-14T13:34:20.666Z,81.52
2017-01-14T13:35:24.910Z,82.75
2017-01-14T13:36:31.073Z,83.32
2017-01-14T13:37:36.364Z,82.94
2017-01-14T13:38:41.602Z,83.32
2017-01-14T13:39:47.767Z,83.51
2017-01-14T13:40:52.935Z,83.13
2017-01-14T13:41:57.143Z,83.61
2017-01-14T13:43:03.311Z,82.94
2017-01-14T13:44:08.625Z,82.75
2017-01-14T13:45:13.825Z,82.37
2017-01-14T13:46:19.091Z,82.18
2017-01-14T13:48:31.421Z,81.24
2017-01-14T13:49:36.629Z,81.62
2017-01-14T13:50:42.802Z,80.95
2017-01-14T13:51:49.044Z,81.24
2017-01-14T13:52:54.249Z,81.62
2017-01-14T13:53:58.478Z,81.52
2017-01-14T13:55:01.722Z,82.09
2017-01-14T13:56:05.957Z,81.71
2017-01-14T13:57:12.338Z,81.43
2017-01-14T13:58:16.573Z,81.71
2017-01-14T13:59:22.764Z,81.81
2017-01-14T14:00:28.947Z,81.71
2017-01-14T14:01:34.205Z,82.28
2017-01-14T14:02:38.435Z,82.09
2017-01-14T14:03:44.610Z,82.18
2017-01-14T14:04:49.820Z,82.47
2017-01-14T14:05:54.060Z,82.37
2017-01-14T14:06:58.403Z,82.66